PWSweather.com
Personal Weather Stations
Station Observations
IMAZOWIE6
WarszawaPL

WarszawaPL

Lat: 52.27957, Lon: 21.05489

Elevation: 100

Station Type: WS1080

http://stacjapogody.waw.pl/

High Low Average
Temperature 53.6°F12.0°C 37.6°F3.1°C 42.7°F5.9°C
Dew Point 10.4°F-12.0°C -168.5°F-111.4°C -49.7°F-45.4°C
Winds 6.2 mph 10.0 kmh Calm Calm 2.0 mph N3.2 kmh N
Wind Gusts 10.8 mph17.4 kmh 0.6 mph1.0 kmh 4.0 mph6.4 kmh
Humidity 25% 10% 17%
Pressure 29.29 in991.9 mb 28.81 in975.6 mb -
Precipitation 0.00 in0.0 mm - -
Hour Temp Dew Point Humidity Winds Wind Gusts Pressure Precip Precip Rate Daily Precip Total
12:05 AM 41.0°F5.0°C -11.4°F-24.1°C 10% Calm Calm 1.4 mph2.3 kmh 29.29 in991.9 mb 0.01 in0.3 mm 0.15 in3.8 mm 0.01 in0.3 mm
12:20 AM 41.0°F5.0°C -11.4°F-24.1°C 10% Calm Calm 1.4 mph2.3 kmh 29.29 in991.9 mb 0.00 in0.0 mm 0.00 in0.0 mm 0.01 in0.3 mm
12:35 AM 40.6°F4.8°C -9.8°F-23.2°C 11% Calm Calm 0.6 mph1.0 kmh 29.28 in991.5 mb 0.00 in0.0 mm 0.00 in0.0 mm 0.01 in0.3 mm
12:50 AM 40.1°F4.5°C -10.3°F-23.5°C 11% Calm Calm 2.0 mph3.2 kmh 29.28 in991.5 mb 0.00 in0.0 mm 0.00 in0.0 mm 0.01 in0.3 mm
01:05 AM 39.9°F4.4°C -8.7°F-22.6°C 12% 0.6 mph N1.0 kmh N 2.8 mph4.5 kmh 29.28 in991.5 mb 0.00 in0.0 mm 0.00 in0.0 mm 0.01 in0.3 mm
01:20 AM 39.7°F4.3°C -7.2°F-21.8°C 13% Calm Calm 2.0 mph3.2 kmh 29.27 in991.2 mb 0.00 in0.0 mm 0.00 in0.0 mm 0.01 in0.3 mm
01:35 AM 39.6°F4.2°C -7.4°F-21.9°C 13% Calm Calm 2.0 mph3.2 kmh 29.27 in991.2 mb 0.00 in0.0 mm 0.00 in0.0 mm 0.01 in0.3 mm
01:50 AM 39.6°F4.2°C -5.8°F-21.0°C 14% 0.6 mph N1.0 kmh N 2.0 mph3.2 kmh 29.26 in990.9 mb 0.00 in0.0 mm 0.00 in0.0 mm 0.01 in0.3 mm
02:05 AM 39.6°F4.2°C -5.8°F-21.0°C 14% 1.4 mph N2.3 kmh N 3.4 mph5.5 kmh 29.25 in990.5 mb 0.00 in0.0 mm 0.00 in0.0 mm 0.01 in0.3 mm
02:20 AM 39.2°F4.0°C -6.1°F-21.2°C 14% Calm Calm 2.0 mph3.2 kmh 29.25 in990.5 mb 0.00 in0.0 mm 0.00 in0.0 mm 0.01 in0.3 mm
02:35 AM 39.2°F4.0°C -6.1°F-21.2°C 14% Calm Calm 2.0 mph3.2 kmh 29.25 in990.5 mb 0.00 in0.0 mm 0.00 in0.0 mm 0.01 in0.3 mm
02:50 AM 39.4°F4.1°C -4.6°F-20.3°C 15% 1.4 mph N2.3 kmh N 3.4 mph5.5 kmh 29.25 in990.5 mb 0.00 in0.0 mm 0.00 in0.0 mm 0.01 in0.3 mm
03:05 AM 39.4°F4.1°C -4.6°F-20.3°C 15% 1.4 mph N2.3 kmh N 2.8 mph4.5 kmh 29.24 in990.2 mb 0.00 in0.0 mm 0.00 in0.0 mm 0.01 in0.3 mm
03:20 AM 39.6°F4.2°C -4.4°F-20.2°C 15% 0.6 mph N1.0 kmh N 2.8 mph4.5 kmh 29.24 in990.2 mb 0.00 in0.0 mm 0.00 in0.0 mm 0.01 in0.3 mm
03:35 AM 39.2°F4.0°C -4.7°F-20.4°C 15% 1.4 mph N2.3 kmh N 3.4 mph5.5 kmh 29.23 in989.8 mb 0.00 in0.0 mm 0.00 in0.0 mm 0.01 in0.3 mm
03:50 AM 38.1°F3.4°C -7.0°F-21.7°C 14% 1.4 mph N2.3 kmh N 3.4 mph5.5 kmh 29.24 in990.2 mb 0.00 in0.0 mm 0.00 in0.0 mm 0.01 in0.3 mm
04:05 AM 37.6°F3.1°C -6.0°F-21.1°C 15% 2.0 mph N3.2 kmh N 3.4 mph5.5 kmh 29.23 in989.8 mb 0.00 in0.0 mm 0.00 in0.0 mm 0.01 in0.3 mm
04:20 AM 37.9°F3.3°C -5.8°F-21.0°C 15% 2.0 mph N3.2 kmh N 3.4 mph5.5 kmh 29.22 in989.5 mb 0.00 in0.0 mm 0.00 in0.0 mm 0.01 in0.3 mm
04:35 AM 38.5°F3.6°C -4.0°F-20.0°C 16% 2.0 mph N3.2 kmh N 4.8 mph7.7 kmh 29.22 in989.5 mb 0.00 in0.0 mm 0.00 in0.0 mm 0.01 in0.3 mm
04:50 AM 38.3°F3.5°C -4.1°F-20.1°C 16% 1.4 mph N2.3 kmh N 3.4 mph5.5 kmh 29.21 in989.2 mb 0.00 in0.0 mm 0.00 in0.0 mm 0.01 in0.3 mm
05:05 AM 38.5°F3.6°C -4.0°F-20.0°C 16% 2.0 mph N3.2 kmh N 4.8 mph7.7 kmh 29.21 in989.2 mb 0.00 in0.0 mm 0.00 in0.0 mm 0.01 in0.3 mm
05:20 AM 38.5°F3.6°C -4.0°F-20.0°C 16% 1.4 mph N2.3 kmh N 3.4 mph5.5 kmh 29.21 in989.2 mb 0.00 in0.0 mm 0.00 in0.0 mm 0.01 in0.3 mm
05:35 AM 38.7°F3.7°C -2.6°F-19.2°C 17% 1.4 mph N2.3 kmh N 2.8 mph4.5 kmh 29.20 in988.8 mb 0.00 in0.0 mm 0.00 in0.0 mm 0.01 in0.3 mm
05:50 AM 39.0°F3.9°C -2.3°F-19.1°C 17% 1.4 mph N2.3 kmh N 2.8 mph4.5 kmh 29.20 in988.8 mb 0.00 in0.0 mm 0.00 in0.0 mm 0.01 in0.3 mm
06:05 AM 39.2°F4.0°C -2.1°F-18.9°C 17% 2.8 mph N4.5 kmh N 4.8 mph7.7 kmh 29.18 in988.1 mb 0.00 in0.0 mm 0.00 in0.0 mm 0.01 in0.3 mm
06:20 AM 39.4°F4.1°C -3.3°F-19.6°C 16% 2.0 mph N3.2 kmh N 5.4 mph8.7 kmh 29.17 in987.8 mb 0.00 in0.0 mm 0.00 in0.0 mm 0.01 in0.3 mm
06:35 AM 41.4°F5.2°C -0.4°F-18.0°C 17% 2.0 mph N3.2 kmh N 3.4 mph5.5 kmh 29.17 in987.8 mb 0.00 in0.0 mm 0.00 in0.0 mm 0.01 in0.3 mm
06:50 AM 46.0°F7.8°C 7.0°F-13.9°C 20% 1.4 mph N2.3 kmh N 2.8 mph4.5 kmh 29.17 in987.8 mb 0.00 in0.0 mm 0.00 in0.0 mm 0.01 in0.3 mm
07:05 AM 47.7°F8.7°C 4.8°F-15.1°C 17% 1.4 mph N2.3 kmh N 3.4 mph5.5 kmh 29.16 in987.5 mb 0.00 in0.0 mm 0.00 in0.0 mm 0.01 in0.3 mm
07:20 AM 45.3°F7.4°C -168.3°F-111.3°C - 2.0 mph N3.2 kmh N 4.8 mph7.7 kmh 29.17 in987.8 mb 0.00 in0.0 mm 0.00 in0.0 mm 0.01 in0.3 mm
07:35 AM 43.2°F6.2°C -168.5°F-111.4°C - 0.6 mph N1.0 kmh N 2.8 mph4.5 kmh 29.16 in987.5 mb 0.00 in0.0 mm 0.00 in0.0 mm 0.01 in0.3 mm
07:50 AM 43.9°F6.6°C -168.4°F-111.3°C - 1.4 mph N2.3 kmh N 4.0 mph6.4 kmh 29.16 in987.5 mb 0.00 in0.0 mm 0.00 in0.0 mm 0.01 in0.3 mm
08:05 AM 47.5°F8.6°C -168.1°F-111.2°C - 4.0 mph N6.4 kmh N 6.8 mph10.9 kmh 29.15 in987.1 mb 0.00 in0.0 mm 0.00 in0.0 mm 0.01 in0.3 mm
08:20 AM 51.1°F10.6°C -167.7°F-110.9°C - 2.8 mph N4.5 kmh N 5.4 mph8.7 kmh 29.15 in987.1 mb 0.00 in0.0 mm 0.00 in0.0 mm 0.01 in0.3 mm
08:35 AM 52.2°F11.2°C -167.6°F-110.9°C - 2.0 mph N3.2 kmh N 3.4 mph5.5 kmh 29.13 in986.5 mb 0.00 in0.0 mm 0.00 in0.0 mm 0.01 in0.3 mm
08:50 AM 53.6°F12.0°C -167.4°F-110.8°C - 2.8 mph N4.5 kmh N 4.8 mph7.7 kmh 29.12 in986.1 mb 0.00 in0.0 mm 0.00 in0.0 mm 0.01 in0.3 mm
09:05 AM 52.5°F11.4°C -167.5°F-110.8°C - 2.8 mph N4.5 kmh N 5.4 mph8.7 kmh 29.11 in985.8 mb 0.00 in0.0 mm 0.00 in0.0 mm 0.01 in0.3 mm
09:20 AM 50.5°F10.3°C -167.7°F-110.9°C - 2.0 mph N3.2 kmh N 4.0 mph6.4 kmh 29.11 in985.8 mb 0.00 in0.0 mm 0.00 in0.0 mm 0.01 in0.3 mm
09:35 AM 49.8°F9.9°C -167.8°F-111.0°C - 2.0 mph N3.2 kmh N 4.8 mph7.7 kmh 29.11 in985.8 mb 0.00 in0.0 mm 0.00 in0.0 mm 0.01 in0.3 mm
09:50 AM 48.4°F9.1°C -168.0°F-111.1°C - 2.0 mph N3.2 kmh N 4.0 mph6.4 kmh 29.10 in985.4 mb 0.00 in0.0 mm 0.00 in0.0 mm 0.01 in0.3 mm
10:05 AM 47.8°F8.8°C -168.0°F-111.1°C - 2.8 mph N4.5 kmh N 6.2 mph10.0 kmh 29.10 in985.4 mb 0.00 in0.0 mm 0.00 in0.0 mm 0.01 in0.3 mm
10:20 AM 47.3°F8.5°C -168.1°F-111.2°C - 2.0 mph N3.2 kmh N 4.8 mph7.7 kmh 29.10 in985.4 mb 0.00 in0.0 mm 0.00 in0.0 mm 0.01 in0.3 mm
10:35 AM 47.1°F8.4°C -168.1°F-111.2°C - 2.0 mph N3.2 kmh N 4.0 mph6.4 kmh 29.09 in985.1 mb 0.00 in0.0 mm 0.00 in0.0 mm 0.01 in0.3 mm
10:50 AM 47.7°F8.7°C -168.0°F-111.1°C - 2.0 mph N3.2 kmh N 4.0 mph6.4 kmh 29.08 in984.8 mb 0.00 in0.0 mm 0.00 in0.0 mm 0.01 in0.3 mm
11:05 AM 47.1°F8.4°C -168.1°F-111.2°C - 4.0 mph N6.4 kmh N 6.8 mph10.9 kmh 29.07 in984.4 mb 0.00 in0.0 mm 0.00 in0.0 mm 0.01 in0.3 mm
11:20 AM 46.4°F8.0°C -168.2°F-111.2°C - 2.0 mph N3.2 kmh N 4.8 mph7.7 kmh 29.06 in984.1 mb 0.00 in0.0 mm 0.00 in0.0 mm 0.01 in0.3 mm
11:35 AM 46.2°F7.9°C -168.2°F-111.2°C - 4.0 mph N6.4 kmh N 7.4 mph11.9 kmh 29.05 in983.7 mb 0.00 in0.0 mm 0.00 in0.0 mm 0.01 in0.3 mm
11:50 AM 45.5°F7.5°C -168.3°F-111.3°C - 4.8 mph N7.7 kmh N 8.2 mph13.2 kmh 29.05 in983.7 mb 0.00 in0.0 mm 0.00 in0.0 mm 0.01 in0.3 mm
12:05 PM 45.1°F7.3°C -168.3°F-111.3°C - 4.0 mph N6.4 kmh N 8.2 mph13.2 kmh 29.04 in983.4 mb 0.00 in0.0 mm 0.00 in0.0 mm 0.01 in0.3 mm
12:20 PM 45.0°F7.2°C -168.3°F-111.3°C - 4.0 mph N6.4 kmh N 6.8 mph10.9 kmh 29.03 in983.1 mb 0.00 in0.0 mm 0.00 in0.0 mm 0.01 in0.3 mm
12:35 PM 44.8°F7.1°C -168.3°F-111.3°C - 4.0 mph N6.4 kmh N 8.2 mph13.2 kmh 29.03 in983.1 mb 0.00 in0.0 mm 0.00 in0.0 mm 0.01 in0.3 mm
12:50 PM 44.1°F6.7°C -168.4°F-111.3°C - 2.0 mph N3.2 kmh N 5.4 mph8.7 kmh 29.02 in982.7 mb 0.00 in0.0 mm 0.00 in0.0 mm 0.01 in0.3 mm
01:05 PM 44.1°F6.7°C -168.4°F-111.3°C - 2.0 mph N3.2 kmh N 7.4 mph11.9 kmh 29.00 in982.1 mb 0.00 in0.0 mm 0.00 in0.0 mm 0.01 in0.3 mm
01:20 PM 43.9°F6.6°C -168.4°F-111.3°C - 2.8 mph N4.5 kmh N 4.8 mph7.7 kmh 28.99 in981.7 mb 0.00 in0.0 mm 0.00 in0.0 mm 0.01 in0.3 mm
01:35 PM 43.2°F6.2°C -168.5°F-111.4°C - 2.8 mph N4.5 kmh N 4.8 mph7.7 kmh 28.98 in981.4 mb 0.00 in0.0 mm 0.00 in0.0 mm 0.01 in0.3 mm
01:50 PM 43.2°F6.2°C -168.5°F-111.4°C - 2.8 mph N4.5 kmh N 4.8 mph7.7 kmh 28.97 in981.0 mb 0.00 in0.0 mm 0.00 in0.0 mm 0.01 in0.3 mm
02:05 PM 43.2°F6.2°C -168.5°F-111.4°C - 3.4 mph N5.5 kmh N 6.2 mph10.0 kmh 28.96 in980.7 mb 0.01 in0.3 mm 0.02 in0.5 mm 0.02 in0.5 mm
02:20 PM 43.2°F6.2°C -9.8°F-23.2°C 10% 2.8 mph N4.5 kmh N 6.2 mph10.0 kmh 28.95 in980.4 mb 0.00 in0.0 mm 0.00 in0.0 mm 0.02 in0.5 mm
02:35 PM 43.0°F6.1°C -9.9°F-23.3°C 10% 2.0 mph N3.2 kmh N 4.0 mph6.4 kmh 28.94 in980.0 mb 0.00 in0.0 mm 0.00 in0.0 mm 0.02 in0.5 mm
02:50 PM 42.8°F6.0°C -8.2°F-22.3°C 11% 2.0 mph N3.2 kmh N 4.8 mph7.7 kmh 28.93 in979.7 mb 0.00 in0.0 mm 0.00 in0.0 mm 0.02 in0.5 mm
03:05 PM 42.8°F6.0°C -6.4°F-21.3°C 12% 0.6 mph N1.0 kmh N 3.4 mph5.5 kmh 28.92 in979.3 mb 0.01 in0.3 mm 0.02 in0.5 mm 0.04 in1.0 mm
03:20 PM 42.4°F5.8°C -5.1°F-20.6°C 13% 2.8 mph N4.5 kmh N 5.4 mph8.7 kmh 28.91 in979.0 mb 0.00 in0.0 mm 0.00 in0.0 mm 0.04 in1.0 mm
03:35 PM 42.3°F5.7°C -3.7°F-19.8°C 14% 1.4 mph N2.3 kmh N 3.4 mph5.5 kmh 28.90 in978.7 mb 0.00 in0.0 mm 0.00 in0.0 mm 0.04 in1.0 mm
03:50 PM 42.3°F5.7°C -3.7°F-19.8°C 14% 1.4 mph N2.3 kmh N 5.4 mph8.7 kmh 28.89 in978.3 mb 0.00 in0.0 mm 0.00 in0.0 mm 0.04 in1.0 mm
04:05 PM 42.6°F5.9°C -2.0°F-18.9°C 15% 0.6 mph N1.0 kmh N 2.8 mph4.5 kmh 28.88 in978.0 mb 0.01 in0.3 mm 0.02 in0.5 mm 0.05 in1.3 mm
04:20 PM 42.6°F5.9°C -2.0°F-18.9°C 15% 2.0 mph N3.2 kmh N 5.4 mph8.7 kmh 28.88 in978.0 mb 0.01 in0.3 mm 0.00 in0.0 mm 0.05 in1.3 mm
04:35 PM 42.4°F5.8°C -0.8°F-18.2°C 16% 2.0 mph N3.2 kmh N 5.4 mph8.7 kmh 28.87 in977.7 mb 0.04 in1.0 mm 0.10 in2.5 mm 0.07 in1.8 mm
04:50 PM 42.1°F5.6°C 0.2°F-17.7°C 17% 2.0 mph N3.2 kmh N 5.4 mph8.7 kmh 28.85 in977.0 mb 0.05 in1.3 mm 0.05 in1.3 mm 0.09 in2.3 mm
05:05 PM 41.7°F5.4°C -0.1°F-17.8°C 17% 2.8 mph N4.5 kmh N 6.2 mph10.0 kmh 28.85 in977.0 mb 0.06 in1.5 mm 0.02 in0.5 mm 0.10 in2.5 mm
05:20 PM 41.9°F5.5°C 1.3°F-17.1°C 18% 0.6 mph N1.0 kmh N 2.8 mph4.5 kmh 28.84 in976.6 mb 0.00 in0.0 mm 0.00 in0.0 mm 0.10 in2.5 mm
05:35 PM 42.1°F5.6°C 2.6°F-16.3°C 19% 2.0 mph N3.2 kmh N 4.0 mph6.4 kmh 28.84 in976.6 mb 0.00 in0.0 mm 0.00 in0.0 mm 0.10 in2.5 mm
05:50 PM 42.6°F5.9°C 4.1°F-15.5°C 20% 1.4 mph N2.3 kmh N 2.8 mph4.5 kmh 28.84 in976.6 mb 0.01 in0.3 mm 0.05 in1.3 mm 0.11 in2.8 mm
06:05 PM 42.6°F5.9°C 4.1°F-15.5°C 20% 4.0 mph N6.4 kmh N 7.4 mph11.9 kmh 28.83 in976.3 mb 0.01 in0.3 mm 0.00 in0.0 mm 0.11 in2.8 mm
06:20 PM 43.2°F6.2°C 5.6°F-14.7°C 21% 3.4 mph N5.5 kmh N 4.8 mph7.7 kmh 28.82 in976.0 mb 0.01 in0.3 mm 0.00 in0.0 mm 0.11 in2.8 mm
06:35 PM 43.3°F6.3°C 6.8°F-14.0°C 22% 2.8 mph N4.5 kmh N 5.4 mph8.7 kmh 28.82 in976.0 mb 0.01 in0.3 mm 0.00 in0.0 mm 0.11 in2.8 mm
06:50 PM 43.5°F6.4°C 7.9°F-13.4°C 23% 5.4 mph N8.7 kmh N 10.8 mph17.4 kmh 28.82 in976.0 mb 0.02 in0.5 mm 0.05 in1.3 mm 0.12 in3.0 mm
07:05 PM 43.9°F6.6°C 8.3°F-13.2°C 23% 0.6 mph N1.0 kmh N 2.0 mph3.2 kmh 28.82 in976.0 mb 0.02 in0.5 mm 0.00 in0.0 mm 0.12 in3.0 mm
07:20 PM 43.9°F6.6°C 9.2°F-12.7°C 24% 1.4 mph N2.3 kmh N 3.4 mph5.5 kmh 28.81 in975.6 mb 0.02 in0.5 mm 0.00 in0.0 mm 0.12 in3.0 mm
07:35 PM 44.1°F6.7°C 9.3°F-12.6°C 24% 2.0 mph N3.2 kmh N 4.8 mph7.7 kmh 28.82 in976.0 mb 0.02 in0.5 mm 0.00 in0.0 mm 0.12 in3.0 mm
07:50 PM 44.2°F6.8°C 10.4°F-12.0°C 25% 3.4 mph N5.5 kmh N 6.2 mph10.0 kmh 28.82 in976.0 mb 0.02 in0.5 mm 0.00 in0.0 mm 0.12 in3.0 mm
08:05 PM 44.2°F6.8°C 10.4°F-12.0°C 25% 2.8 mph N4.5 kmh N 5.4 mph8.7 kmh 28.83 in976.3 mb 0.04 in1.0 mm 0.02 in0.5 mm 0.14 in3.6 mm
08:20 PM 43.9°F6.6°C 10.1°F-12.2°C 25% 0.6 mph N1.0 kmh N 3.4 mph5.5 kmh 28.84 in976.6 mb 0.00 in0.0 mm 0.00 in0.0 mm 0.14 in3.6 mm
08:35 PM 43.3°F6.3°C 9.6°F-12.4°C 25% 2.0 mph N3.2 kmh N 6.2 mph10.0 kmh 28.85 in977.0 mb 0.00 in0.0 mm 0.00 in0.0 mm 0.14 in3.6 mm
08:50 PM 42.6°F5.9°C 7.2°F-13.8°C 23% 6.2 mph N10.0 kmh N 10.8 mph17.4 kmh 28.85 in977.0 mb 0.01 in0.3 mm 0.05 in1.3 mm 0.15 in3.8 mm
09:05 PM 41.9°F5.5°C 5.6°F-14.7°C 22% 2.8 mph N4.5 kmh N 6.2 mph10.0 kmh 28.87 in977.7 mb 0.01 in0.3 mm 0.00 in0.0 mm 0.15 in3.8 mm
09:20 PM 41.4°F5.2°C 5.1°F-14.9°C 22% Calm Calm 0.6 mph1.0 kmh 28.88 in978.0 mb 0.00 in0.0 mm 0.00 in0.0 mm 0.15 in3.8 mm
09:35 PM 41.2°F5.1°C 5.0°F-15.0°C 22% Calm Calm 1.4 mph2.3 kmh 28.89 in978.3 mb 0.00 in0.0 mm 0.00 in0.0 mm 0.15 in3.8 mm
09:50 PM 40.8°F4.9°C 3.7°F-15.7°C 21% 0.6 mph N1.0 kmh N 3.4 mph5.5 kmh 28.89 in978.3 mb 0.00 in0.0 mm 0.00 in0.0 mm 0.15 in3.8 mm
10:05 PM 40.5°F4.7°C 2.3°F-16.5°C 20% 3.4 mph N5.5 kmh N 7.4 mph11.9 kmh 28.89 in978.3 mb 0.01 in0.3 mm 0.02 in0.5 mm 0.16 in4.1 mm
10:20 PM 39.4°F4.1°C 0.3°F-17.6°C 19% 2.8 mph N4.5 kmh N 8.2 mph13.2 kmh 28.90 in978.7 mb 0.00 in0.0 mm 0.00 in0.0 mm 0.16 in4.1 mm
10:35 PM 38.8°F3.8°C -0.1°F-17.8°C 19% 0.6 mph N1.0 kmh N 2.0 mph3.2 kmh 28.91 in979.0 mb 0.00 in0.0 mm 0.00 in0.0 mm 0.16 in4.1 mm
10:50 PM 38.7°F3.7°C -0.3°F-17.9°C 19% 1.4 mph N2.3 kmh N 4.0 mph6.4 kmh 28.92 in979.3 mb 0.00 in0.0 mm 0.00 in0.0 mm 0.16 in4.1 mm
11:05 PM 38.8°F3.8°C 1.0°F-17.2°C 20% 1.4 mph N2.3 kmh N 4.0 mph6.4 kmh 28.92 in979.3 mb 0.00 in0.0 mm 0.00 in0.0 mm 0.16 in4.1 mm
11:20 PM 38.8°F3.8°C 1.0°F-17.2°C 20% Calm Calm 1.4 mph2.3 kmh 28.93 in979.7 mb 0.01 in0.3 mm 0.05 in1.3 mm 0.17 in4.3 mm
11:35 PM 39.0°F3.9°C 0.0°F-17.8°C 19% 2.8 mph N4.5 kmh N 5.4 mph8.7 kmh 28.93 in979.7 mb 0.01 in0.3 mm 0.00 in0.0 mm 0.17 in4.3 mm
11:50 PM 39.4°F4.1°C -0.8°F-18.2°C 18% 2.8 mph N4.5 kmh N 8.8 mph14.2 kmh 28.93 in979.7 mb 0.01 in0.3 mm 0.00 in0.0 mm 0.17 in4.3 mm